sensor_id;sensor_type;location;lat;lon;timestamp;pressure;altitude;pressure_sealevel;temperature;humidity
19596;BME280;9945;46.010;8.946;2023-05-08T00:01:11;97347.59;;;19.87;75.30
19596;BME280;9945;46.010;8.946;2023-05-08T00:03:37;97343.91;;;19.88;76.84
19596;BME280;9945;46.010;8.946;2023-05-08T00:06:05;97348.38;;;19.75;76.83
19596;BME280;9945;46.010;8.946;2023-05-08T00:08:32;97346.75;;;19.74;76.30
19596;BME280;9945;46.010;8.946;2023-05-08T00:11:00;97342.66;;;19.84;73.27
19596;BME280;9945;46.010;8.946;2023-05-08T00:13:27;97347.38;;;19.76;72.75
19596;BME280;9945;46.010;8.946;2023-05-08T00:15:54;97345.34;;;19.84;72.42
19596;BME280;9945;46.010;8.946;2023-05-08T00:18:21;97339.00;;;19.79;72.43
19596;BME280;9945;46.010;8.946;2023-05-08T00:20:47;97334.69;;;19.64;74.21
19596;BME280;9945;46.010;8.946;2023-05-08T00:23:14;97334.47;;;19.53;76.05
19596;BME280;9945;46.010;8.946;2023-05-08T00:25:41;97344.28;;;19.65;75.68
19596;BME280;9945;46.010;8.946;2023-05-08T00:28:09;97344.28;;;19.65;76.65
19596;BME280;9945;46.010;8.946;2023-05-08T00:30:36;97337.16;;;19.73;76.40
19596;BME280;9945;46.010;8.946;2023-05-08T00:33:03;97333.66;;;19.59;77.40
19596;BME280;9945;46.010;8.946;2023-05-08T00:35:30;97329.78;;;19.55;77.83
19596;BME280;9945;46.010;8.946;2023-05-08T00:37:56;97332.19;;;19.56;77.90
19596;BME280;9945;46.010;8.946;2023-05-08T00:40:24;97331.53;;;19.41;78.28
19596;BME280;9945;46.010;8.946;2023-05-08T00:42:51;97327.50;;;19.52;77.37
19596;BME280;9945;46.010;8.946;2023-05-08T00:45:20;97326.09;;;19.56;75.23
19596;BME280;9945;46.010;8.946;2023-05-08T00:47:46;97324.47;;;19.61;73.29
19596;BME280;9945;46.010;8.946;2023-05-08T00:50:13;97327.75;;;19.70;71.13
19596;BME280;9945;46.010;8.946;2023-05-08T00:52:41;97329.38;;;19.64;72.48
19596;BME280;9945;46.010;8.946;2023-05-08T00:55:08;97338.13;;;19.58;73.38
19596;BME280;9945;46.010;8.946;2023-05-08T00:57:35;97338.56;;;19.62;72.89
19596;BME280;9945;46.010;8.946;2023-05-08T01:00:03;97339.59;;;19.68;72.82
19596;BME280;9945;46.010;8.946;2023-05-08T01:02:34;97325.69;;;19.65;74.83
19596;BME280;9945;46.010;8.946;2023-05-08T01:05:02;97325.91;;;19.71;75.53
19596;BME280;9945;46.010;8.946;2023-05-08T01:07:29;97336.94;;;19.74;74.89
19596;BME280;9945;46.010;8.946;2023-05-08T01:09:55;97330.34;;;19.50;76.29
19596;BME280;9945;46.010;8.946;2023-05-08T01:12:27;97332.69;;;19.19;77.28
19596;BME280;9945;46.010;8.946;2023-05-08T01:15:05;97334.53;;;19.25;77.04
19596;BME280;9945;46.010;8.946;2023-05-08T01:17:44;97332.25;;;19.09;78.64
19596;BME280;9945;46.010;8.946;2023-05-08T01:20:25;97334.53;;;19.18;79.46
19596;BME280;9945;46.010;8.946;2023-05-08T01:26:18;97342.38;;;18.92;82.74
19596;BME280;9945;46.010;8.946;2023-05-08T01:29:08;97344.88;;;18.59;86.81
19596;BME280;9945;46.010;8.946;2023-05-08T01:31:50;97345.22;;;18.56;88.12
19596;BME280;9945;46.010;8.946;2023-05-08T01:34:23;97351.09;;;18.45;90.70
19596;BME280;9945;46.010;8.946;2023-05-08T01:36:55;97352.66;;;18.39;90.55
19596;BME280;9945;46.010;8.946;2023-05-08T01:39:33;97357.13;;;18.39;90.31
19596;BME280;9945;46.010;8.946;2023-05-08T01:42:06;97361.34;;;18.27;91.86
19596;BME280;9945;46.010;8.946;2023-05-08T01:44:39;97355.44;;;18.31;92.29
19596;BME280;9945;46.010;8.946;2023-05-08T01:47:08;97358.00;;;18.46;90.86
19596;BME280;9945;46.010;8.946;2023-05-08T01:49:40;97355.41;;;18.52;90.76
19596;BME280;9945;46.010;8.946;2023-05-08T01:52:13;97349.47;;;18.50;91.16
19596;BME280;9945;46.010;8.946;2023-05-08T01:54:57;97351.38;;;18.57;90.66
19596;BME280;9945;46.010;8.946;2023-05-08T01:57:27;97356.94;;;18.62;90.57
19596;BME280;9945;46.010;8.946;2023-05-08T01:59:56;97355.09;;;18.62;90.94
19596;BME280;9945;46.010;8.946;2023-05-08T02:02:27;97346.09;;;18.63;90.96
19596;BME280;9945;46.010;8.946;2023-05-08T02:04:57;97352.13;;;18.50;91.97
19596;BME280;9945;46.010;8.946;2023-05-08T02:07:24;97353.88;;;18.65;90.66
19596;BME280;9945;46.010;8.946;2023-05-08T02:09:53;97353.97;;;18.50;91.44
19596;BME280;9945;46.010;8.946;2023-05-08T02:12:21;97368.56;;;18.39;92.40
19596;BME280;9945;46.010;8.946;2023-05-08T02:14:48;97366.47;;;18.28;93.29
19596;BME280;9945;46.010;8.946;2023-05-08T02:17:17;97373.03;;;18.39;92.75
19596;BME280;9945;46.010;8.946;2023-05-08T02:19:46;97369.22;;;18.48;91.71
19596;BME280;9945;46.010;8.946;2023-05-08T02:22:16;97375.06;;;18.58;91.72
19596;BME280;9945;46.010;8.946;2023-05-08T02:24:44;97378.97;;;18.62;90.23
19596;BME280;9945;46.010;8.946;2023-05-08T02:27:12;97374.91;;;18.66;90.23
19596;BME280;9945;46.010;8.946;2023-05-08T02:29:41;97373.66;;;18.62;90.15
19596;BME280;9945;46.010;8.946;2023-05-08T02:32:08;97374.53;;;18.69;89.10
19596;BME280;9945;46.010;8.946;2023-05-08T02:34:36;97387.94;;;18.61;88.73
19596;BME280;9945;46.010;8.946;2023-05-08T02:37:04;97376.75;;;18.72;88.35
19596;BME280;9945;46.010;8.946;2023-05-08T02:39:34;97383.81;;;18.86;87.70
19596;BME280;9945;46.010;8.946;2023-05-08T02:42:02;97385.81;;;18.84;87.99
19596;BME280;9945;46.010;8.946;2023-05-08T02:44:29;97380.75;;;18.89;87.76
19596;BME280;9945;46.010;8.946;2023-05-08T02:46:59;97385.44;;;18.87;88.45
19596;BME280;9945;46.010;8.946;2023-05-08T02:49:32;97386.94;;;18.97;88.62
19596;BME280;9945;46.010;8.946;2023-05-08T02:52:07;97389.59;;;18.97;87.89
19596;BME280;9945;46.010;8.946;2023-05-08T02:54:40;97394.09;;;19.03;88.01
19596;BME280;9945;46.010;8.946;2023-05-08T02:57:13;97394.91;;;19.03;88.15
19596;BME280;9945;46.010;8.946;2023-05-08T02:59:46;97389.41;;;19.05;87.84
19596;BME280;9945;46.010;8.946;2023-05-08T03:02:23;97396.56;;;19.04;87.26
19596;BME280;9945;46.010;8.946;2023-05-08T03:04:58;97402.56;;;18.85;88.21
19596;BME280;9945;46.010;8.946;2023-05-08T03:07:27;97397.75;;;18.67;87.44
19596;BME280;9945;46.010;8.946;2023-05-08T03:10:00;97405.50;;;18.62;85.31
19596;BME280;9945;46.010;8.946;2023-05-08T03:12:29;97394.09;;;18.68;85.13
19596;BME280;9945;46.010;8.946;2023-05-08T03:15:02;97396.50;;;18.63;85.89
19596;BME280;9945;46.010;8.946;2023-05-08T03:17:32;97404.06;;;18.66;89.00
19596;BME280;9945;46.010;8.946;2023-05-08T03:20:03;97404.06;;;18.66;89.95
19596;BME280;9945;46.010;8.946;2023-05-08T03:22:33;97413.50;;;18.69;90.45
19596;BME280;9945;46.010;8.946;2023-05-08T03:25:04;97409.56;;;18.65;90.66
19596;BME280;9945;46.010;8.946;2023-05-08T03:27:33;97406.63;;;18.53;91.71
19596;BME280;9945;46.010;8.946;2023-05-08T03:30:01;97407.50;;;18.60;91.07
19596;BME280;9945;46.010;8.946;2023-05-08T03:32:30;97415.94;;;18.70;90.08
19596;BME280;9945;46.010;8.946;2023-05-08T03:35:00;97417.16;;;18.68;90.79
19596;BME280;9945;46.010;8.946;2023-05-08T03:37:28;97417.78;;;18.70;90.84
19596;BME280;9945;46.010;8.946;2023-05-08T03:39:55;97423.66;;;18.65;91.25
19596;BME280;9945;46.010;8.946;2023-05-08T03:42:24;97414.34;;;18.76;90.53
19596;BME280;9945;46.010;8.946;2023-05-08T03:44:52;97423.13;;;18.76;90.67
19596;BME280;9945;46.010;8.946;2023-05-08T03:47:20;97423.16;;;18.83;90.20
19596;BME280;9945;46.010;8.946;2023-05-08T03:49:49;97416.06;;;18.90;89.58
19596;BME280;9945;46.010;8.946;2023-05-08T03:52:17;97427.47;;;18.84;89.47
19596;BME280;9945;46.010;8.946;2023-05-08T03:54:44;97424.59;;;18.79;89.03
19596;BME280;9945;46.010;8.946;2023-05-08T03:57:11;97429.41;;;18.69;89.89
19596;BME280;9945;46.010;8.946;2023-05-08T03:59:43;97434.75;;;18.75;89.25
19596;BME280;9945;46.010;8.946;2023-05-08T04:02:18;97430.91;;;18.78;88.61
19596;BME280;9945;46.010;8.946;2023-05-08T04:04:53;97421.34;;;18.83;88.19
19596;BME280;9945;46.010;8.946;2023-05-08T04:07:26;97422.59;;;18.87;88.38
19596;BME280;9945;46.010;8.946;2023-05-08T04:09:57;97423.84;;;18.92;87.81
19596;BME280;9945;46.010;8.946;2023-05-08T04:12:30;97432.38;;;18.87;87.96
19596;BME280;9945;46.010;8.946;2023-05-08T04:15:03;97438.53;;;18.87;88.58
19596;BME280;9945;46.010;8.946;2023-05-08T04:17:35;97432.38;;;18.87;88.21
19596;BME280;9945;46.010;8.946;2023-05-08T04:20:06;97434.81;;;18.88;88.03
19596;BME280;9945;46.010;8.946;2023-05-08T04:22:37;97433.44;;;18.93;87.06
19596;BME280;9945;46.010;8.946;2023-05-08T04:25:08;97442.13;;;18.80;87.46
19596;BME280;9945;46.010;8.946;2023-05-08T04:27:36;97448.00;;;18.75;87.29
19596;BME280;9945;46.010;8.946;2023-05-08T04:30:06;97449.28;;;18.79;87.20
19596;BME280;9945;46.010;8.946;2023-05-08T04:32:34;97446.84;;;18.84;88.01
19596;BME280;9945;46.010;8.946;2023-05-08T04:35:03;97450.13;;;18.86;88.51
19596;BME280;9945;46.010;8.946;2023-05-08T04:37:30;97448.16;;;18.67;90.23
19596;BME280;9945;46.010;8.946;2023-05-08T04:39:57;97451.63;;;18.68;90.26
19596;BME280;9945;46.010;8.946;2023-05-08T04:42:25;97454.88;;;18.42;92.00
19596;BME280;9945;46.010;8.946;2023-05-08T04:44:52;97450.44;;;18.49;91.26
19596;BME280;9945;46.010;8.946;2023-05-08T04:47:20;97464.16;;;18.31;92.61
19596;BME280;9945;46.010;8.946;2023-05-08T04:49:48;97458.34;;;18.21;93.88
19596;BME280;9945;46.010;8.946;2023-05-08T04:52:15;97456.38;;;18.30;93.64
19596;BME280;9945;46.010;8.946;2023-05-08T04:54:42;97458.97;;;18.44;92.35
19596;BME280;9945;46.010;8.946;2023-05-08T04:57:09;97454.72;;;18.50;92.82
19596;BME280;9945;46.010;8.946;2023-05-08T04:59:35;97452.78;;;18.59;92.50
19596;BME280;9945;46.010;8.946;2023-05-08T05:02:02;97457.91;;;18.60;91.98
19596;BME280;9945;46.010;8.946;2023-05-08T05:04:32;97463.84;;;18.62;91.85
19596;BME280;9945;46.010;8.946;2023-05-08T05:07:00;97457.56;;;18.70;91.82
19596;BME280;9945;46.010;8.946;2023-05-08T05:09:27;97462.88;;;18.70;91.42
19596;BME280;9945;46.010;8.946;2023-05-08T05:11:54;97471.06;;;18.75;91.17
19596;BME280;9945;46.010;8.946;2023-05-08T05:14:20;97467.78;;;18.73;90.24
19596;BME280;9945;46.010;8.946;2023-05-08T05:16:47;97464.13;;;18.74;90.32
19596;BME280;9945;46.010;8.946;2023-05-08T05:19:14;97467.38;;;18.69;89.68
19596;BME280;9945;46.010;8.946;2023-05-08T05:21:42;97468.34;;;18.62;89.88
19596;BME280;9945;46.010;8.946;2023-05-08T05:24:09;97465.13;;;18.73;89.46
19596;BME280;9945;46.010;8.946;2023-05-08T05:26:36;97471.53;;;18.78;89.69
19596;BME280;9945;46.010;8.946;2023-05-08T05:29:03;97478.47;;;18.79;90.34
19596;BME280;9945;46.010;8.946;2023-05-08T05:31:30;97471.38;;;18.86;90.26
19596;BME280;9945;46.010;8.946;2023-05-08T05:33:56;97474.84;;;18.87;90.22
19596;BME280;9945;46.010;8.946;2023-05-08T05:36:23;97474.88;;;18.94;90.56
19596;BME280;9945;46.010;8.946;2023-05-08T05:38:52;97471.84;;;18.97;90.38
19596;BME280;9945;46.010;8.946;2023-05-08T05:41:18;97478.78;;;18.98;89.45
19596;BME280;9945;46.010;8.946;2023-05-08T05:43:46;97473.91;;;18.73;90.29
19596;BME280;9945;46.010;8.946;2023-05-08T05:46:13;97473.84;;;18.88;90.47
19596;BME280;9945;46.010;8.946;2023-05-08T05:48:40;97467.94;;;18.93;89.98
19596;BME280;9945;46.010;8.946;2023-05-08T05:51:07;97470.94;;;18.83;89.99
19596;BME280;9945;46.010;8.946;2023-05-08T05:53:34;97470.09;;;18.82;90.14
19596;BME280;9945;46.010;8.946;2023-05-08T05:56:02;97458.94;;;18.87;90.20
19596;BME280;9945;46.010;8.946;2023-05-08T05:58:29;97462.59;;;18.86;90.76
19596;BME280;9945;46.010;8.946;2023-05-08T06:00:57;97460.59;;;18.95;89.40
19596;BME280;9945;46.010;8.946;2023-05-08T06:03:25;97464.09;;;18.95;89.77
19596;BME280;9945;46.010;8.946;2023-05-08T06:05:52;97469.56;;;18.94;90.14
19596;BME280;9945;46.010;8.946;2023-05-08T06:08:19;97464.22;;;18.87;88.94
19596;BME280;9945;46.010;8.946;2023-05-08T06:10:45;97464.91;;;18.96;89.73
19596;BME280;9945;46.010;8.946;2023-05-08T06:13:13;97470.44;;;19.01;89.82
19596;BME280;9945;46.010;8.946;2023-05-08T06:15:40;97471.25;;;19.01;88.64
19596;BME280;9945;46.010;8.946;2023-05-08T06:18:07;97475.38;;;19.04;87.81
19596;BME280;9945;46.010;8.946;2023-05-08T06:20:36;97474.38;;;19.11;86.84
19596;BME280;9945;46.010;8.946;2023-05-08T06:23:02;97476.56;;;19.01;87.57
19596;BME280;9945;46.010;8.946;2023-05-08T06:25:29;97473.69;;;18.96;89.05
19596;BME280;9945;46.010;8.946;2023-05-08T06:27:56;97478.22;;;19.02;87.69
19596;BME280;9945;46.010;8.946;2023-05-08T06:30:24;97483.00;;;19.20;86.92
19596;BME280;9945;46.010;8.946;2023-05-08T06:32:51;97476.53;;;19.29;85.70
19596;BME280;9945;46.010;8.946;2023-05-08T06:35:18;97478.75;;;19.25;84.95
19596;BME280;9945;46.010;8.946;2023-05-08T06:37:45;97483.31;;;19.38;83.69
19596;BME280;9945;46.010;8.946;2023-05-08T06:40:12;97484.44;;;19.57;82.16
19596;BME280;9945;46.010;8.946;2023-05-08T06:42:40;97480.66;;;19.73;82.28
19596;BME280;9945;46.010;8.946;2023-05-08T06:45:07;97473.72;;;19.85;81.41
19596;BME280;9945;46.010;8.946;2023-05-08T06:47:36;97475.44;;;20.06;79.92
19596;BME280;9945;46.010;8.946;2023-05-08T06:50:03;97478.91;;;20.06;79.63
19596;BME280;9945;46.010;8.946;2023-05-08T06:52:30;97482.50;;;19.85;81.36
19596;BME280;9945;46.010;8.946;2023-05-08T06:54:57;97482.75;;;19.90;80.68
19596;BME280;9945;46.010;8.946;2023-05-08T06:57:24;97472.13;;;19.97;80.75
19596;BME280;9945;46.010;8.946;2023-05-08T06:59:53;97478.91;;;20.06;80.38
19596;BME280;9945;46.010;8.946;2023-05-08T07:02:20;97470.13;;;20.12;79.40
19596;BME280;9945;46.010;8.946;2023-05-08T07:04:48;97474.81;;;20.10;77.78
19596;BME280;9945;46.010;8.946;2023-05-08T07:07:15;97476.47;;;20.18;76.72
19596;BME280;9945;46.010;8.946;2023-05-08T07:09:42;97473.59;;;20.19;77.49
19596;BME280;9945;46.010;8.946;2023-05-08T07:12:09;97479.31;;;20.16;77.26
19596;BME280;9945;46.010;8.946;2023-05-08T07:14:36;97478.28;;;20.17;76.43
19596;BME280;9945;46.010;8.946;2023-05-08T07:17:03;97471.19;;;20.31;74.98
19596;BME280;9945;46.010;8.946;2023-05-08T07:19:32;97473.88;;;20.37;75.67
19596;BME280;9945;46.010;8.946;2023-05-08T07:22:00;97477.34;;;20.51;72.92
19596;BME280;9945;46.010;8.946;2023-05-08T07:24:28;97477.97;;;20.60;72.36
19596;BME280;9945;46.010;8.946;2023-05-08T07:26:54;97473.06;;;20.57;71.41
19596;BME280;9945;46.010;8.946;2023-05-08T07:29:24;97480.66;;;20.66;70.99
19596;BME280;9945;46.010;8.946;2023-05-08T07:31:51;97480.44;;;20.74;69.87
19596;BME280;9945;46.010;8.946;2023-05-08T07:34:18;97482.06;;;20.75;69.01
19596;BME280;9945;46.010;8.946;2023-05-08T07:36:45;97480.66;;;20.66;68.94
19596;BME280;9945;46.010;8.946;2023-05-08T07:39:13;97491.69;;;20.83;68.24
19596;BME280;9945;46.010;8.946;2023-05-08T07:41:40;97492.31;;;20.92;68.51
19596;BME280;9945;46.010;8.946;2023-05-08T07:44:07;97493.31;;;20.97;67.37
19596;BME280;9945;46.010;8.946;2023-05-08T07:46:35;97485.94;;;21.06;69.77
19596;BME280;9945;46.010;8.946;2023-05-08T07:49:03;97482.25;;;21.00;65.70
19596;BME280;9945;46.010;8.946;2023-05-08T07:51:29;97476.28;;;21.18;65.44
19596;BME280;9945;46.010;8.946;2023-05-08T07:53:57;97489.59;;;21.31;64.03
19596;BME280;9945;46.010;8.946;2023-05-08T07:56:25;97481.16;;;21.41;65.03
19596;BME280;9945;46.010;8.946;2023-05-08T07:58:53;97482.56;;;21.50;65.47
19596;BME280;9945;46.010;8.946;2023-05-08T08:01:19;97476.41;;;21.56;66.52
19596;BME280;9945;46.010;8.946;2023-05-08T08:03:46;97478.94;;;21.82;67.72
19596;BME280;9945;46.010;8.946;2023-05-08T08:06:13;97480.50;;;21.97;66.73
19596;BME280;9945;46.010;8.946;2023-05-08T08:08:40;97477.00;;;22.09;65.31
19596;BME280;9945;46.010;8.946;2023-05-08T08:11:07;97481.16;;;22.30;64.70
19596;BME280;9945;46.010;8.946;2023-05-08T08:13:35;97480.28;;;22.43;60.83
19596;BME280;9945;46.010;8.946;2023-05-08T08:16:02;97481.69;;;22.45;60.49
19596;BME280;9945;46.010;8.946;2023-05-08T08:18:32;97474.13;;;22.42;59.94
19596;BME280;9945;46.010;8.946;2023-05-08T08:20:59;97480.91;;;22.38;57.92
19596;BME280;9945;46.010;8.946;2023-05-08T08:23:26;97483.28;;;22.21;58.97
19596;BME280;9945;46.010;8.946;2023-05-08T08:25:52;97477.56;;;22.18;58.66
19596;BME280;9945;46.010;8.946;2023-05-08T08:28:19;97480.13;;;22.00;57.57
19596;BME280;9945;46.010;8.946;2023-05-08T08:30:48;97470.41;;;22.12;57.53
19596;BME280;9945;46.010;8.946;2023-05-08T08:33:15;97477.34;;;22.19;58.60
19596;BME280;9945;46.010;8.946;2023-05-08T08:35:42;97473.88;;;22.19;60.03
19596;BME280;9945;46.010;8.946;2023-05-08T08:38:09;97472.91;;;22.38;60.67
19596;BME280;9945;46.010;8.946;2023-05-08T08:40:38;97470.47;;;22.37;61.72
19596;BME280;9945;46.010;8.946;2023-05-08T08:43:05;97474.75;;;22.38;60.57
19596;BME280;9945;46.010;8.946;2023-05-08T08:45:32;97473.28;;;22.42;60.88
19596;BME280;9945;46.010;8.946;2023-05-08T08:48:01;97463.88;;;22.08;61.63
19596;BME280;9945;46.010;8.946;2023-05-08T08:50:30;97477.84;;;21.97;62.32
19596;BME280;9945;46.010;8.946;2023-05-08T08:53:04;97469.63;;;22.05;60.98
19596;BME280;9945;46.010;8.946;2023-05-08T08:55:34;97468.06;;;22.29;58.99
19596;BME280;9945;46.010;8.946;2023-05-08T08:58:13;97474.81;;;22.31;58.98
19596;BME280;9945;46.010;8.946;2023-05-08T09:00:41;97464.72;;;22.33;59.18
19596;BME280;9945;46.010;8.946;2023-05-08T09:03:10;97468.59;;;22.37;58.88
19596;BME280;9945;46.010;8.946;2023-05-08T09:05:36;97468.84;;;22.29;58.72
19596;BME280;9945;46.010;8.946;2023-05-08T09:08:04;97471.31;;;21.93;60.61
19596;BME280;9945;46.010;8.946;2023-05-08T09:10:33;97473.63;;;21.82;62.34
19596;BME280;9945;46.010;8.946;2023-05-08T09:13:00;97474.34;;;21.96;61.08
19596;BME280;9945;46.010;8.946;2023-05-08T09:15:27;97472.91;;;22.07;59.78
19596;BME280;9945;46.010;8.946;2023-05-08T09:17:54;97484.84;;;21.98;61.51
19596;BME280;9945;46.010;8.946;2023-05-08T09:20:23;97479.63;;;22.16;60.40
19596;BME280;9945;46.010;8.946;2023-05-08T09:22:51;97476.09;;;22.22;60.06
19596;BME280;9945;46.010;8.946;2023-05-08T09:25:20;97480.84;;;22.13;60.36
19596;BME280;9945;46.010;8.946;2023-05-08T09:27:46;97478.41;;;22.12;60.55
19596;BME280;9945;46.010;8.946;2023-05-08T09:30:13;97481.69;;;22.14;59.03
19596;BME280;9945;46.010;8.946;2023-05-08T09:32:42;97486.06;;;22.02;58.83
19596;BME280;9945;46.010;8.946;2023-05-08T09:35:10;97485.25;;;22.01;59.78
19596;BME280;9945;46.010;8.946;2023-05-08T09:37:39;97481.88;;;22.12;57.87
19596;BME280;9945;46.010;8.946;2023-05-08T09:40:15;97489.16;;;22.30;59.20
19596;BME280;9945;46.010;8.946;2023-05-08T09:42:42;97485.91;;;22.28;59.38
19596;BME280;9945;46.010;8.946;2023-05-08T09:45:10;97488.59;;;22.21;60.68
19596;BME280;9945;46.010;8.946;2023-05-08T09:47:37;97484.44;;;22.01;61.43
19596;BME280;9945;46.010;8.946;2023-05-08T09:50:06;97491.06;;;22.23;61.62
19596;BME280;9945;46.010;8.946;2023-05-08T09:52:34;97489.31;;;22.04;63.60
19596;BME280;9945;46.010;8.946;2023-05-08T09:55:04;97488.13;;;22.31;60.51
19596;BME280;9945;46.010;8.946;2023-05-08T09:57:33;97492.09;;;22.53;60.77
19596;BME280;9945;46.010;8.946;2023-05-08T10:00:04;97495.53;;;22.60;61.51
19596;BME280;9945;46.010;8.946;2023-05-08T10:02:32;97490.72;;;22.76;60.19
19596;BME280;9945;46.010;8.946;2023-05-08T10:04:59;97488.94;;;22.63;60.96
19596;BME280;9945;46.010;8.946;2023-05-08T10:07:28;97497.63;;;22.27;60.49
19596;BME280;9945;46.010;8.946;2023-05-08T10:09:59;97495.13;;;22.32;61.44
19596;BME280;9945;46.010;8.946;2023-05-08T10:12:29;97505.72;;;22.45;60.91
19596;BME280;9945;46.010;8.946;2023-05-08T10:14:56;97496.22;;;22.49;61.91
19596;BME280;9945;46.010;8.946;2023-05-08T10:17:33;97507.47;;;22.58;61.86
19596;BME280;9945;46.010;8.946;2023-05-08T10:20:05;97504.19;;;22.24;63.65
19596;BME280;9945;46.010;8.946;2023-05-08T10:22:35;97511.53;;;22.36;63.25
19596;BME280;9945;46.010;8.946;2023-05-08T10:25:16;97497.47;;;22.15;63.85
19596;BME280;9945;46.010;8.946;2023-05-08T10:27:52;97501.56;;;22.49;64.10
19596;BME280;9945;46.010;8.946;2023-05-08T10:30:23;97503.84;;;22.46;63.36
19596;BME280;9945;46.010;8.946;2023-05-08T10:32:51;97505.94;;;22.06;65.90
19596;BME280;9945;46.010;8.946;2023-05-08T10:35:20;97500.56;;;22.19;66.33
19596;BME280;9945;46.010;8.946;2023-05-08T10:37:48;97506.44;;;22.27;65.42
19596;BME280;9945;46.010;8.946;2023-05-08T10:40:16;97500.88;;;22.60;63.79
19596;BME280;9945;46.010;8.946;2023-05-08T10:42:47;97497.53;;;22.65;63.90
19596;BME280;9945;46.010;8.946;2023-05-08T10:45:14;97498.56;;;22.71;62.48
19596;BME280;9945;46.010;8.946;2023-05-08T10:47:50;97487.75;;;23.09;62.38
19596;BME280;9945;46.010;8.946;2023-05-08T10:50:38;97476.56;;;23.36;62.10
19596;BME280;9945;46.010;8.946;2023-05-08T10:53:12;97479.63;;;23.58;62.06
19596;BME280;9945;46.010;8.946;2023-05-08T10:55:44;97479.63;;;23.58;60.38
19596;BME280;9945;46.010;8.946;2023-05-08T10:58:15;97474.75;;;23.55;58.65
19596;BME280;9945;46.010;8.946;2023-05-08T11:01:13;97474.03;;;23.42;60.33
19596;BME280;9945;46.010;8.946;2023-05-08T11:03:42;97468.69;;;23.42;59.94
19596;BME280;9945;46.010;8.946;2023-05-08T11:06:10;97469.03;;;23.52;59.06
19596;BME280;9945;46.010;8.946;2023-05-08T11:08:48;97469.72;;;23.40;59.73
19596;BME280;9945;46.010;8.946;2023-05-08T11:11:31;97474.03;;;23.42;59.78
19596;BME280;9945;46.010;8.946;2023-05-08T11:14:11;97466.34;;;23.52;59.54
19596;BME280;9945;46.010;8.946;2023-05-08T11:17:04;97468.09;;;23.76;59.40
19596;BME280;9945;46.010;8.946;2023-05-08T11:19:32;97476.66;;;23.66;58.25
19596;BME280;9945;46.010;8.946;2023-05-08T11:25:08;97469.97;;;23.39;57.91
19596;BME280;9945;46.010;8.946;2023-05-08T11:30:34;97467.69;;;23.61;58.76
19596;BME280;9945;46.010;8.946;2023-05-08T11:33:16;97459.16;;;23.52;60.00
19596;BME280;9945;46.010;8.946;2023-05-08T11:35:51;97457.66;;;23.56;58.56
19596;BME280;9945;46.010;8.946;2023-05-08T11:38:26;97453.09;;;23.75;57.73
19596;BME280;9945;46.010;8.946;2023-05-08T11:40:58;97456.06;;;23.85;57.63
19596;BME280;9945;46.010;8.946;2023-05-08T11:43:31;97455.16;;;23.91;55.94
19596;BME280;9945;46.010;8.946;2023-05-08T11:46:03;97447.56;;;24.06;56.36
19596;BME280;9945;46.010;8.946;2023-05-08T11:48:34;97456.59;;;24.24;57.10
19596;BME280;9945;46.010;8.946;2023-05-08T11:51:02;97449.66;;;24.46;55.36
19596;BME280;9945;46.010;8.946;2023-05-08T11:53:29;97445.13;;;24.46;53.41
19596;BME280;9945;46.010;8.946;2023-05-08T11:55:57;97442.66;;;24.45;54.73
19596;BME280;9945;46.010;8.946;2023-05-08T11:58:25;97448.28;;;24.55;55.54
19596;BME280;9945;46.010;8.946;2023-05-08T12:00:52;97434.41;;;24.46;54.82
19596;BME280;9945;46.010;8.946;2023-05-08T12:03:22;97437.31;;;24.45;54.35
19596;BME280;9945;46.010;8.946;2023-05-08T12:05:51;97435.78;;;24.37;55.34
19596;BME280;9945;46.010;8.946;2023-05-08T12:08:20;97430.75;;;24.29;54.98
19596;BME280;9945;46.010;8.946;2023-05-08T12:10:51;97427.53;;;24.39;55.22
19596;BME280;9945;46.010;8.946;2023-05-08T12:13:20;97424.50;;;24.47;55.68
19596;BME280;9945;46.010;8.946;2023-05-08T12:15:48;97431.34;;;24.31;54.61
19596;BME280;9945;46.010;8.946;2023-05-08T12:18:16;97430.75;;;24.29;55.53
19596;BME280;9945;46.010;8.946;2023-05-08T12:20:44;97441.13;;;24.07;54.57
19596;BME280;9945;46.010;8.946;2023-05-08T12:23:11;97430.06;;;23.74;55.90
19596;BME280;9945;46.010;8.946;2023-05-08T12:25:39;97422.53;;;23.83;55.45
19596;BME280;9945;46.010;8.946;2023-05-08T12:28:06;97422.09;;;23.86;55.98
19596;BME280;9945;46.010;8.946;2023-05-08T12:30:34;97410.38;;;23.87;57.71
19596;BME280;9945;46.010;8.946;2023-05-08T12:33:02;97419.69;;;23.96;56.39
19596;BME280;9945;46.010;8.946;2023-05-08T12:35:30;97413.22;;;24.03;56.55
19596;BME280;9945;46.010;8.946;2023-05-08T12:38:01;97414.75;;;24.11;55.21
19596;BME280;9945;46.010;8.946;2023-05-08T12:40:30;97410.56;;;24.15;55.49
19596;BME280;9945;46.010;8.946;2023-05-08T12:42:59;97410.56;;;24.15;55.35
19596;BME280;9945;46.010;8.946;2023-05-08T12:45:28;97404.91;;;24.35;54.43
19596;BME280;9945;46.010;8.946;2023-05-08T12:47:58;97407.94;;;24.27;53.96
19596;BME280;9945;46.010;8.946;2023-05-08T12:50:26;97415.41;;;24.36;53.62
19596;BME280;9945;46.010;8.946;2023-05-08T12:53:02;97412.47;;;24.26;55.35
19596;BME280;9945;46.010;8.946;2023-05-08T12:55:32;97405.19;;;24.45;54.58
19596;BME280;9945;46.010;8.946;2023-05-08T12:58:01;97405.28;;;24.38;54.61
19596;BME280;9945;46.010;8.946;2023-05-08T13:00:36;97405.75;;;24.35;54.15
19596;BME280;9945;46.010;8.946;2023-05-08T13:03:03;97410.38;;;24.28;55.13
19596;BME280;9945;46.010;8.946;2023-05-08T13:05:31;97408.97;;;24.26;55.60
19596;BME280;9945;46.010;8.946;2023-05-08T13:07:59;97401.47;;;24.04;55.83
19596;BME280;9945;46.010;8.946;2023-05-08T13:10:42;97393.69;;;24.14;57.32
19596;BME280;9945;46.010;8.946;2023-05-08T13:13:09;97392.78;;;23.91;56.69
19596;BME280;9945;46.010;8.946;2023-05-08T13:15:36;97390.75;;;23.74;57.39
19596;BME280;9945;46.010;8.946;2023-05-08T13:18:03;97402.19;;;23.52;58.42
19596;BME280;9945;46.010;8.946;2023-05-08T13:20:32;97386.22;;;23.45;58.95
19596;BME280;9945;46.010;8.946;2023-05-08T13:22:59;97388.88;;;23.45;59.74
19596;BME280;9945;46.010;8.946;2023-05-08T13:25:27;97382.44;;;23.34;59.31
19596;BME280;9945;46.010;8.946;2023-05-08T13:27:58;97389.13;;;23.25;60.53
19596;BME280;9945;46.010;8.946;2023-05-08T13:30:25;97384.28;;;23.34;62.69